createdAt,value
2022-12-24T00:01:04.871Z,99228.69
2022-12-24T00:03:38.548Z,99227.36
2022-12-24T00:06:22.544Z,99231.14
2022-12-24T00:09:04.271Z,99220.74
2022-12-24T00:11:54.516Z,99216.83
2022-12-24T00:14:27.028Z,99220.02
2022-12-24T00:16:59.866Z,99226.19
2022-12-24T00:19:32.607Z,99227.38
2022-12-24T00:22:14.557Z,99225.77
2022-12-24T00:24:57.351Z,99221.44
2022-12-24T00:27:40.953Z,99223.77
2022-12-24T00:30:18.418Z,99226.79
2022-12-24T00:32:58.925Z,99228.73
2022-12-24T00:35:41.702Z,99226.23
2022-12-24T00:38:22.020Z,99232.34
2022-12-24T00:41:04.142Z,99235.69
2022-12-24T00:43:54.436Z,99241.55
2022-12-24T00:46:41.442Z,99241.74
2022-12-24T00:49:19.854Z,99244.33
2022-12-24T00:54:54.956Z,99246.36
2022-12-24T00:57:29.204Z,99246.01
2022-12-24T01:00:08.142Z,99244.42
2022-12-24T01:02:57.784Z,99243.98
2022-12-24T01:05:44.847Z,99246.45
2022-12-24T01:08:27.415Z,99246.20
2022-12-24T01:11:03.301Z,99242.99
2022-12-24T01:13:37.352Z,99245.70
2022-12-24T01:16:31.599Z,99247.21
2022-12-24T01:19:34.851Z,99250.88
2022-12-24T01:22:08.377Z,99247.34
2022-12-24T01:24:48.183Z,99245.63
2022-12-24T01:27:29.730Z,99241.80
2022-12-24T01:30:14.917Z,99239.73
2022-12-24T01:32:51.733Z,99234.41
2022-12-24T01:35:34.085Z,99227.61
2022-12-24T01:38:31.115Z,99228.80
2022-12-24T01:41:22.439Z,99227.02
2022-12-24T01:44:15.276Z,99228.41
2022-12-24T01:46:48.981Z,99226.29
2022-12-24T01:49:24.072Z,99224.31
2022-12-24T01:52:15.852Z,99225.90
2022-12-24T01:54:58.319Z,99228.76
2022-12-24T01:57:50.389Z,99224.70
2022-12-24T02:00:37.973Z,99221.97
2022-12-24T02:03:15.102Z,99221.72
2022-12-24T02:06:07.614Z,99222.27
2022-12-24T02:08:43.237Z,99225.43
2022-12-24T02:11:25.047Z,99226.84
2022-12-24T02:14:03.471Z,99225.75
2022-12-24T02:17:01.338Z,99223.72
2022-12-24T02:20:08.499Z,99220.41
2022-12-24T02:23:21.934Z,99219.32
2022-12-24T02:26:24.256Z,99213.65
2022-12-24T02:29:26.422Z,99214.09
2022-12-24T02:32:13.093Z,99214.20
2022-12-24T02:34:57.721Z,99217.17
2022-12-24T02:37:43.548Z,99214.02
2022-12-24T02:40:52.503Z,99216.95
2022-12-24T02:43:30.735Z,99216.80
2022-12-24T02:46:27.532Z,99216.05
2022-12-24T02:49:04.391Z,99218.52
2022-12-24T02:51:40.860Z,99218.49
2022-12-24T02:54:18.266Z,99215.77
2022-12-24T02:57:14.611Z,99215.56
2022-12-24T03:00:01.923Z,99215.40
2022-12-24T03:03:15.083Z,99216.03
2022-12-24T03:06:11.759Z,99217.02
2022-12-24T03:09:02.793Z,99217.39
2022-12-24T03:11:33.502Z,99221.73
2022-12-24T03:14:04.004Z,99224.67
2022-12-24T03:16:33.797Z,99225.12
2022-12-24T03:19:04.077Z,99225.35
2022-12-24T03:21:38.490Z,99224.77
2022-12-24T03:24:10.337Z,99225.98
2022-12-24T03:26:56.212Z,99224.48
2022-12-24T03:29:53.824Z,99221.46
2022-12-24T03:32:31.752Z,99216.55
2022-12-24T03:35:16.636Z,99215.53
2022-12-24T03:38:10.382Z,99215.77
2022-12-24T03:40:54.544Z,99214.16
2022-12-24T03:43:27.916Z,99216.91
2022-12-24T03:46:13.392Z,99214.96
2022-12-24T03:49:01.032Z,99215.95
2022-12-24T03:51:33.739Z,99218.32
2022-12-24T03:54:10.305Z,99224.30
2022-12-24T03:56:50.569Z,99228.43
2022-12-24T03:59:22.163Z,99225.59
2022-12-24T04:01:54.630Z,99225.98
2022-12-24T04:04:27.485Z,99224.88
2022-12-24T04:07:00.306Z,99220.66
2022-12-24T04:09:32.349Z,99220.35
2022-12-24T04:12:10.975Z,99220.63
2022-12-24T04:14:50.446Z,99219.37
2022-12-24T04:17:31.969Z,99215.23
2022-12-24T04:20:07.198Z,99217.36
2022-12-24T04:22:40.713Z,99215.85
2022-12-24T04:25:16.560Z,99217.65
2022-12-24T04:28:14.323Z,99222.08
2022-12-24T04:31:18.285Z,99223.38
2022-12-24T04:33:54.794Z,99225.16
2022-12-24T04:36:29.126Z,99223.08
2022-12-24T04:39:04.555Z,99227.14
2022-12-24T04:41:39.191Z,99228.61
2022-12-24T04:44:17.046Z,99230.12
2022-12-24T04:46:54.174Z,99228.38
2022-12-24T04:49:25.450Z,99225.67
2022-12-24T04:51:55.694Z,99226.04
2022-12-24T04:54:25.404Z,99230.50
2022-12-24T04:56:58.633Z,99229.35
2022-12-24T04:59:28.855Z,99226.58
2022-12-24T05:02:00.438Z,99231.71
2022-12-24T05:04:35.716Z,99234.78
2022-12-24T05:07:07.834Z,99231.73
2022-12-24T05:09:40.851Z,99230.02
2022-12-24T05:12:10.677Z,99227.39
2022-12-24T05:14:41.222Z,99226.77
2022-12-24T05:17:13.499Z,99230.30
2022-12-24T05:19:43.673Z,99233.38
2022-12-24T05:22:31.639Z,99235.02
2022-12-24T05:25:24.085Z,99241.91
2022-12-24T05:27:54.840Z,99244.34
2022-12-24T05:30:24.620Z,99252.70
2022-12-24T05:32:55.449Z,99253.19
2022-12-24T05:35:31.496Z,99254.24
2022-12-24T05:38:01.620Z,99248.42
2022-12-24T05:40:36.529Z,99251.91
2022-12-24T05:43:09.811Z,99251.88
2022-12-24T05:45:46.589Z,99255.44
2022-12-24T05:48:16.116Z,99258.84
2022-12-24T05:50:45.449Z,99266.16
2022-12-24T05:53:14.811Z,99270.64
2022-12-24T05:55:44.383Z,99271.56
2022-12-24T05:58:16.457Z,99274.54
2022-12-24T06:02:04.586Z,99278.27
2022-12-24T06:49:26.036Z,99338.21
2022-12-24T06:52:03.288Z,99343.48
2022-12-24T06:54:35.593Z,99346.29
2022-12-24T06:57:08.159Z,99351.56
2022-12-24T06:59:37.591Z,99356.55
2022-12-24T07:02:07.769Z,99358.34
2022-12-24T07:04:40.435Z,99357.50
2022-12-24T07:07:10.427Z,99358.45
2022-12-24T07:09:42.703Z,99362.89
2022-12-24T07:12:12.738Z,99363.53
2022-12-24T07:14:43.933Z,99367.29
2022-12-24T07:17:13.893Z,99373.80
2022-12-24T07:19:43.493Z,99377.11
2022-12-24T07:22:15.779Z,99380.28
2022-12-24T07:24:48.205Z,99387.72
2022-12-24T07:27:18.234Z,99395.35
2022-12-24T07:29:51.016Z,99398.00
2022-12-24T07:32:21.523Z,99398.48
2022-12-24T07:34:51.178Z,99406.15
2022-12-24T07:37:20.877Z,99416.14
2022-12-24T07:39:50.590Z,99419.66
2022-12-24T07:42:20.308Z,99427.38
2022-12-24T07:44:49.866Z,99432.14
2022-12-24T07:47:20.041Z,99435.98
2022-12-24T07:49:49.880Z,99441.16
2022-12-24T07:52:19.597Z,99440.56
2022-12-24T07:54:49.522Z,99444.81
2022-12-24T07:57:19.358Z,99450.86
2022-12-24T07:59:49.042Z,99456.79
2022-12-24T08:02:19.195Z,99463.98
2022-12-24T08:04:49.597Z,99464.07
2022-12-24T08:07:25.385Z,99466.97
2022-12-24T08:09:55.167Z,99472.89
2022-12-24T08:12:24.821Z,99476.48
2022-12-24T08:14:54.662Z,99478.16
2022-12-24T08:17:30.178Z,99480.15
2022-12-24T08:20:02.178Z,99488.25
2022-12-24T08:22:31.986Z,99492.89
2022-12-24T08:25:01.801Z,99497.71
2022-12-24T08:27:34.292Z,99504.09
2022-12-24T08:30:06.079Z,99510.73
2022-12-24T08:32:36.291Z,99516.06
2022-12-24T08:35:07.219Z,99518.13
2022-12-24T08:37:37.262Z,99520.11
2022-12-24T08:40:07.856Z,99527.95
2022-12-24T08:42:38.094Z,99535.47
2022-12-24T08:45:08.494Z,99541.42
2022-12-24T08:47:39.724Z,99544.81
2022-12-24T08:50:10.194Z,99550.40
2022-12-24T08:52:40.167Z,99551.90
2022-12-24T08:55:09.808Z,99554.16
2022-12-24T08:57:39.693Z,99560.58
2022-12-24T09:00:13.563Z,99565.27
2022-12-24T09:02:43.412Z,99575.70
2022-12-24T09:05:12.925Z,99580.71
2022-12-24T09:07:42.247Z,99583.48
2022-12-24T09:10:12.321Z,99585.38
2022-12-24T09:12:43.512Z,99587.56
2022-12-24T09:15:14.451Z,99588.02
2022-12-24T09:17:50.504Z,99595.98
2022-12-24T09:20:22.780Z,99601.09
2022-12-24T09:22:52.223Z,99604.10
2022-12-24T09:25:21.528Z,99610.97
2022-12-24T09:27:53.851Z,99615.59
2022-12-24T09:30:23.520Z,99617.26
2022-12-24T09:32:58.740Z,99622.27
2022-12-24T09:35:28.263Z,99626.36
2022-12-24T09:38:03.718Z,99626.87
2022-12-24T09:40:42.324Z,99624.81
2022-12-24T09:43:22.078Z,99628.47
2022-12-24T09:46:14.950Z,99633.02
2022-12-24T09:48:56.291Z,99633.38
2022-12-24T09:51:54.207Z,99635.14
2022-12-24T09:54:35.126Z,99635.30
2022-12-24T09:57:32.621Z,99639.64
2022-12-24T10:00:03.802Z,99643.30
2022-12-24T10:02:42.622Z,99651.88
2022-12-24T10:05:27.204Z,99656.05
2022-12-24T10:09:02.898Z,99666.45
2022-12-24T10:11:45.294Z,99671.05
2022-12-24T10:14:49.224Z,99676.54
2022-12-24T10:17:47.422Z,99678.44
2022-12-24T10:21:05.974Z,99683.27
2022-12-24T10:23:53.789Z,99691.77
2022-12-24T10:26:34.160Z,99700.21
2022-12-24T10:29:21.057Z,99698.74
2022-12-24T10:32:07.422Z,99706.29
2022-12-24T10:34:48.748Z,99706.10
2022-12-24T10:37:33.028Z,99723.92
2022-12-24T10:40:05.739Z,99730.61
2022-12-24T10:42:51.410Z,99737.55
2022-12-24T10:45:28.289Z,99738.19
2022-12-24T10:48:08.501Z,99745.13
2022-12-24T10:50:55.007Z,99747.13
2022-12-24T10:53:47.724Z,99749.66
2022-12-24T10:56:20.227Z,99750.48
2022-12-24T10:58:56.539Z,99752.73
2022-12-24T11:01:48.601Z,99755.70
2022-12-24T11:04:22.757Z,99756.95
2022-12-24T11:07:05.647Z,99763.20
2022-12-24T11:09:43.636Z,99769.08
2022-12-24T11:13:27.362Z,99770.15
2022-12-24T11:15:39.229Z,99770.73
2022-12-24T11:18:17.807Z,99769.60
2022-12-24T11:20:53.954Z,99771.91
2022-12-24T11:23:27.311Z,99768.95
2022-12-24T11:26:11.264Z,99772.77
2022-12-24T11:33:56.646Z,99787.97
2022-12-24T11:36:27.652Z,99791.72
2022-12-24T11:38:59.106Z,99797.55
2022-12-24T11:41:37.775Z,99800.24
2022-12-24T11:44:10.549Z,99800.45
2022-12-24T11:46:46.488Z,99804.29
2022-12-24T11:49:30.281Z,99808.74
2022-12-24T11:52:22.392Z,99810.16
2022-12-24T11:55:16.615Z,99817.13
2022-12-24T11:58:14.228Z,99821.36
2022-12-24T12:00:46.394Z,99821.43
2022-12-24T12:03:29.968Z,99822.05
2022-12-24T12:06:03.996Z,99827.23
2022-12-24T12:08:36.145Z,99829.12
2022-12-24T12:11:12.404Z,99830.33
2022-12-24T12:13:44.353Z,99835.33
2022-12-24T12:16:26.178Z,99840.42
2022-12-24T12:19:08.739Z,99844.96
2022-12-24T12:21:48.088Z,99843.65
2022-12-24T12:24:32.380Z,99841.38
2022-12-24T12:27:23.994Z,99847.27
2022-12-24T12:30:04.770Z,99847.94
2022-12-24T12:32:57.328Z,99850.80
2022-12-24T12:35:40.560Z,99857.80
2022-12-24T12:38:22.386Z,99865.09
2022-12-24T12:41:54.905Z,99869.81
2022-12-24T12:44:54.104Z,99872.73
2022-12-24T12:47:42.650Z,99874.96
2022-12-24T12:50:20.527Z,99884.34
2022-12-24T12:53:01.867Z,99893.40
2022-12-24T12:56:20.826Z,99900.66
2022-12-24T12:59:00.236Z,99907.54
2022-12-24T13:01:33.122Z,99914.41
2022-12-24T13:04:41.012Z,99914.30
2022-12-24T13:07:25.006Z,99914.98
2022-12-24T13:10:08.530Z,99919.04
2022-12-24T13:12:44.441Z,99920.52
2022-12-24T13:15:44.141Z,99924.98
2022-12-24T13:18:40.274Z,99929.84
2022-12-24T13:21:20.911Z,99934.19
2022-12-24T13:23:50.686Z,99946.91
2022-12-24T13:26:20.301Z,99956.98
2022-12-24T13:28:55.782Z,99957.91
2022-12-24T13:31:29.022Z,99957.32
2022-12-24T13:34:01.344Z,99958.98
2022-12-24T13:37:05.445Z,99960.29
2022-12-24T13:40:06.327Z,99962.70
2022-12-24T13:43:04.141Z,99961.81
2022-12-24T13:45:39.921Z,99960.92
2022-12-24T13:48:10.889Z,99966.08
2022-12-24T13:50:53.075Z,99975.75
2022-12-24T13:53:33.288Z,99978.38
2022-12-24T13:56:27.249Z,99979.29
2022-12-24T13:59:39.051Z,99981.90
2022-12-24T14:02:25.197Z,99986.13
2022-12-24T14:05:00.331Z,99982.20
2022-12-24T14:07:31.145Z,99981.36
2022-12-24T14:10:01.030Z,99979.36
2022-12-24T14:12:51.058Z,99981.09
2022-12-24T14:15:51.292Z,99985.50
2022-12-24T14:18:25.337Z,99980.95
2022-12-24T14:20:58.079Z,99982.55
2022-12-24T14:23:54.157Z,99988.28
2022-12-24T14:26:30.550Z,99991.48
2022-12-24T14:29:13.172Z,99997.25
2022-12-24T14:31:54.983Z,100004.39
2022-12-24T14:34:24.800Z,100008.41
2022-12-24T14:36:56.738Z,100008.56
2022-12-24T14:39:37.903Z,100002.58
2022-12-24T14:42:57.121Z,100007.23
2022-12-24T14:45:42.605Z,100010.02
2022-12-24T14:48:34.601Z,100017.82
2022-12-24T14:51:20.878Z,100024.91
2022-12-24T14:54:21.027Z,100027.79
2022-12-24T14:57:27.807Z,100027.89
2022-12-24T15:00:00.642Z,100033.27
2022-12-24T15:02:43.534Z,100041.73
2022-12-24T15:05:39.590Z,100042.27
2022-12-24T15:08:19.382Z,100043.33
2022-12-24T15:10:54.657Z,100042.61
2022-12-24T15:13:37.678Z,100048.16
2022-12-24T15:16:30.204Z,100047.83
2022-12-24T15:19:04.769Z,100049.23
2022-12-24T15:21:41.381Z,100050.11
2022-12-24T15:24:32.258Z,100057.79
2022-12-24T15:27:17.646Z,100065.21
2022-12-24T15:29:57.309Z,100069.76
2022-12-24T15:32:26.391Z,100072.80
2022-12-24T15:34:56.220Z,100075.65
2022-12-24T15:37:30.151Z,100080.30
2022-12-24T15:40:19.753Z,100081.07
2022-12-24T15:42:48.999Z,100086.48
2022-12-24T15:45:28.369Z,100091.98
2022-12-24T15:48:06.934Z,100094.69
2022-12-24T15:50:46.588Z,100095.83
2022-12-24T15:53:22.720Z,100099.91
2022-12-24T15:56:13.233Z,100103.10
2022-12-24T15:58:45.657Z,100110.41
2022-12-24T16:01:17.505Z,100111.23
2022-12-24T16:03:52.911Z,100108.98
2022-12-24T16:06:23.507Z,100110.20
2022-12-24T16:08:52.633Z,100115.23
2022-12-24T16:11:24.111Z,100116.64
2022-12-24T16:14:05.250Z,100114.47
2022-12-24T16:16:37.803Z,100123.20
2022-12-24T16:19:16.485Z,100125.16
2022-12-24T16:21:46.230Z,100122.13
2022-12-24T16:24:26.134Z,100121.92
2022-12-24T16:26:56.818Z,100125.59
2022-12-24T16:29:27.716Z,100121.66
2022-12-24T16:31:59.321Z,100125.26
2022-12-24T16:34:31.432Z,100125.81
2022-12-24T16:37:00.514Z,100129.67
2022-12-24T16:39:33.737Z,100132.42
2022-12-24T16:42:23.373Z,100131.52
2022-12-24T16:44:55.937Z,100133.22
2022-12-24T16:47:33.407Z,100134.71
2022-12-24T16:50:08.582Z,100137.26
2022-12-24T16:52:37.608Z,100136.99
2022-12-24T16:55:07.014Z,100137.45
2022-12-24T16:57:36.025Z,100140.71
2022-12-24T17:00:09.750Z,100145.92
2022-12-24T17:02:39.883Z,100148.00
2022-12-24T17:05:10.100Z,100146.11
2022-12-24T17:07:43.407Z,100147.09
2022-12-24T17:10:14.741Z,100147.02
2022-12-24T17:12:43.995Z,100152.41
2022-12-24T17:15:13.405Z,100161.27
2022-12-24T17:17:42.566Z,100161.36
2022-12-24T17:20:12.259Z,100167.02
2022-12-24T17:22:41.459Z,100173.87
2022-12-24T17:25:13.875Z,100177.82
2022-12-24T17:27:42.901Z,100182.30
2022-12-24T17:30:12.643Z,100190.21
2022-12-24T17:32:41.860Z,100195.72
2022-12-24T17:35:10.894Z,100194.65
2022-12-24T17:37:39.934Z,100189.78
2022-12-24T17:40:10.263Z,100190.29
2022-12-24T17:42:39.452Z,100193.37
2022-12-24T17:45:09.181Z,100193.01
2022-12-24T17:47:38.274Z,100195.83
2022-12-24T17:50:11.730Z,100198.12
2022-12-24T17:52:41.069Z,100198.68
2022-12-24T17:55:11.101Z,100200.45
2022-12-24T17:57:40.037Z,100203.00
2022-12-24T18:00:10.201Z,100205.40
2022-12-24T18:02:39.356Z,100206.55
2022-12-24T18:05:08.722Z,100211.16
2022-12-24T18:07:37.899Z,100216.83
2022-12-24T18:10:08.413Z,100222.39
2022-12-24T18:12:37.555Z,100224.16
2022-12-24T18:15:07.515Z,100225.54
2022-12-24T18:17:36.505Z,100228.13
2022-12-24T18:20:07.635Z,100228.83
2022-12-24T18:22:36.607Z,100231.25
2022-12-24T18:25:06.762Z,100235.92
2022-12-24T18:27:36.348Z,100239.20
2022-12-24T18:30:09.089Z,100242.26
2022-12-24T18:32:38.686Z,100242.74
2022-12-24T18:35:08.480Z,100242.01
2022-12-24T18:37:37.812Z,100244.73
2022-12-24T18:40:09.364Z,100245.91
2022-12-24T18:42:41.891Z,100246.12
2022-12-24T18:45:11.613Z,100247.64
2022-12-24T18:47:40.688Z,100250.19
2022-12-24T18:50:09.970Z,100254.98
2022-12-24T18:52:39.165Z,100254.71
2022-12-24T18:55:09.348Z,100255.44
2022-12-24T18:57:38.349Z,100258.23
2022-12-24T19:00:09.079Z,100261.94
2022-12-24T19:02:38.290Z,100262.39
2022-12-24T19:05:08.419Z,100257.61
2022-12-24T19:07:37.807Z,100264.34
2022-12-24T19:10:09.003Z,100271.48
2022-12-24T19:12:38.390Z,100279.11
2022-12-24T19:15:07.771Z,100290.52
2022-12-24T19:17:37.416Z,100299.97
2022-12-24T19:20:08.216Z,100311.15
2022-12-24T19:22:37.421Z,100312.36
2022-12-24T19:25:07.537Z,100315.13
2022-12-24T19:27:38.956Z,100320.64
2022-12-24T19:30:09.023Z,100320.77
2022-12-24T19:32:38.304Z,100321.41
2022-12-24T19:35:08.181Z,100324.66
2022-12-24T19:37:37.870Z,100329.65
2022-12-24T19:40:09.069Z,100332.11
2022-12-24T19:42:38.874Z,100334.35
2022-12-24T19:45:22.778Z,100330.60
2022-12-24T19:47:52.992Z,100335.75
2022-12-24T19:50:22.280Z,100333.10
2022-12-24T19:52:51.425Z,100338.58
2022-12-24T19:55:20.692Z,100340.11
2022-12-24T19:57:53.910Z,100339.76
2022-12-24T20:00:23.029Z,100346.00
2022-12-24T20:02:52.211Z,100343.95
2022-12-24T20:05:21.386Z,100338.85
2022-12-24T20:07:50.485Z,100341.98
2022-12-24T20:10:20.807Z,100347.52
2022-12-24T20:12:50.138Z,100356.17
2022-12-24T20:15:19.271Z,100361.20
2022-12-24T20:17:52.192Z,100377.69
2022-12-24T20:20:21.326Z,100381.85
2022-12-24T20:22:50.403Z,100381.98
2022-12-24T20:25:19.905Z,100384.71
2022-12-24T20:27:49.303Z,100385.86
2022-12-24T20:30:18.496Z,100392.73
2022-12-24T20:32:47.855Z,100394.95
2022-12-24T20:35:17.100Z,100400.45
2022-12-24T20:37:46.538Z,100393.70
2022-12-24T20:40:16.497Z,100388.33
2022-12-24T20:42:45.565Z,100390.25
2022-12-24T20:45:15.081Z,100388.66
2022-12-24T20:47:44.083Z,100392.44
2022-12-24T20:50:13.254Z,100395.19
2022-12-24T20:52:42.683Z,100394.34
2022-12-24T20:55:11.879Z,100396.95
2022-12-24T20:57:41.840Z,100396.64
2022-12-24T21:00:11.922Z,100398.56
2022-12-24T21:02:42.155Z,100396.14
2022-12-24T21:05:12.768Z,100396.66
2022-12-24T21:07:43.655Z,100401.67
2022-12-24T21:10:15.426Z,100404.15
2022-12-24T21:12:50.143Z,100401.58
2022-12-24T21:15:22.154Z,100403.46
2022-12-24T21:17:51.617Z,100411.60
2022-12-24T21:20:21.939Z,100411.09
2022-12-24T21:22:54.622Z,100411.05
2022-12-24T21:25:27.179Z,100412.20
2022-12-24T21:27:56.336Z,100411.80
2022-12-24T21:30:26.449Z,100411.91
2022-12-24T21:32:55.608Z,100410.16
2022-12-24T21:35:24.665Z,100408.91
2022-12-24T21:37:53.654Z,100405.08
2022-12-24T21:40:22.768Z,100401.10
2022-12-24T21:42:51.813Z,100397.14
2022-12-24T21:45:20.842Z,100400.44
2022-12-24T21:47:52.555Z,100401.16
2022-12-24T21:50:40.026Z,100397.88
2022-12-24T21:53:27.439Z,100401.19
2022-12-24T21:55:56.489Z,100399.66
2022-12-24T21:58:25.600Z,100401.39
2022-12-24T22:00:57.526Z,100408.10
2022-12-24T22:03:27.703Z,100413.02
2022-12-24T22:05:59.091Z,100412.56
2022-12-24T22:08:46.496Z,100417.94
2022-12-24T22:11:34.436Z,100416.95
2022-12-24T22:14:03.900Z,100417.49
2022-12-24T22:16:32.924Z,100420.39
2022-12-24T22:19:02.030Z,100421.04
2022-12-24T22:21:31.018Z,100422.77
2022-12-24T22:24:00.101Z,100417.56
2022-12-24T22:26:29.085Z,100419.63
2022-12-24T22:28:58.140Z,100423.61
2022-12-24T22:31:27.354Z,100425.33
2022-12-24T22:33:56.635Z,100431.04
2022-12-24T22:36:25.792Z,100435.16
2022-12-24T22:38:54.852Z,100432.17
2022-12-24T22:41:23.864Z,100431.61
2022-12-24T22:43:52.973Z,100432.77
2022-12-24T22:46:23.222Z,100436.58
2022-12-24T22:48:53.002Z,100442.23
2022-12-24T22:51:22.520Z,100447.75
2022-12-24T22:53:51.690Z,100455.23
2022-12-24T22:56:23.198Z,100457.22
2022-12-24T22:58:56.688Z,100458.77
2022-12-24T23:01:40.951Z,100455.33
2022-12-24T23:04:10.926Z,100457.93
2022-12-24T23:06:41.517Z,100466.41
2022-12-24T23:09:15.802Z,100472.61
2022-12-24T23:11:45.021Z,100472.37
2022-12-24T23:14:38.939Z,100470.05
2022-12-24T23:17:09.662Z,100472.67
2022-12-24T23:19:39.213Z,100480.47
2022-12-24T23:22:09.945Z,100483.92
2022-12-24T23:24:39.549Z,100485.67
2022-12-24T23:27:08.825Z,100491.90
2022-12-24T23:29:37.862Z,100493.09
2022-12-24T23:32:06.941Z,100495.48
2022-12-24T23:34:35.989Z,100497.20
2022-12-24T23:37:05.072Z,100495.31
2022-12-24T23:39:34.092Z,100503.77
2022-12-24T23:42:03.369Z,100506.69
2022-12-24T23:44:32.987Z,100511.20
2022-12-24T23:47:02.281Z,100516.43
2022-12-24T23:49:31.437Z,100527.14
2022-12-24T23:52:00.513Z,100527.47
2022-12-24T23:54:29.859Z,100525.13
2022-12-24T23:56:58.896Z,100529.63
2022-12-24T23:59:28.251Z,100529.76
